Louisville, Nebraska
Current Conditions -  °F | °C
As of 8:35 AM on Thursday 27 Nov 2014 (Local Time) from KPMV Reporting Station
Overcast Overcast  
Wind Chill: -8°   Ceiling: 7000
Heat Index: -8°   Visibility: 10mi
Dew Point: -12°   Wind: 3mph
Humidity: 74%   Direction: 360°N
Pressure: 30.52"   Gusts: NA
Location:  41°N, 96.16°W
Report Text: KPMV 271435Z AUTO 36003KT 10SM OVC070 M08/M12 A3052 RMK AO2 T10821121
Loading
Personal Weather Stations






























Interactive Weather Map New forecast layout! Learn more

10-Day Weather Forecast

Advertisements
Track Severe Weather on mobile